sensor_id;sensor_type;location;lat;lon;timestamp;pressure;altitude;pressure_sealevel;temperature;humidity
35291;BME280;21411;50.024;19.220;2022-09-06T00:00:36;99611.36;;;13.15;100.00
35291;BME280;21411;50.024;19.220;2022-09-06T00:03:03;99612.95;;;13.10;100.00
35291;BME280;21411;50.024;19.220;2022-09-06T00:05:30;99611.73;;;13.05;100.00
35291;BME280;21411;50.024;19.220;2022-09-06T00:08:04;99608.88;;;12.99;100.00
35291;BME280;21411;50.024;19.220;2022-09-06T00:10:31;99611.46;;;12.92;100.00
35291;BME280;21411;50.024;19.220;2022-09-06T00:13:05;99608.57;;;12.88;100.00
35291;BME280;21411;50.024;19.220;2022-09-06T00:15:34;99611.66;;;12.84;100.00
35291;BME280;21411;50.024;19.220;2022-09-06T00:18:01;99613.10;;;12.82;100.00
35291;BME280;21411;50.024;19.220;2022-09-06T00:20:29;99611.88;;;12.79;100.00
35291;BME280;21411;50.024;19.220;2022-09-06T00:23:03;99612.27;;;12.75;100.00
35291;BME280;21411;50.024;19.220;2022-09-06T00:25:30;99608.08;;;12.71;100.00
35291;BME280;21411;50.024;19.220;2022-09-06T00:28:04;99602.87;;;12.69;100.00
35291;BME280;21411;50.024;19.220;2022-09-06T00:30:33;99604.77;;;12.67;100.00
35291;BME280;21411;50.024;19.220;2022-09-06T00:32:58;99600.64;;;12.65;100.00
35291;BME280;21411;50.024;19.220;2022-09-06T00:35:25;99597.49;;;12.61;100.00
35291;BME280;21411;50.024;19.220;2022-09-06T00:37:58;99601.23;;;12.56;100.00
35291;BME280;21411;50.024;19.220;2022-09-06T00:40:24;99604.75;;;12.51;100.00
35291;BME280;21411;50.024;19.220;2022-09-06T00:42:51;99609.34;;;12.46;100.00
35291;BME280;21411;50.024;19.220;2022-09-06T00:45:18;99612.89;;;12.41;100.00
35291;BME280;21411;50.024;19.220;2022-09-06T00:47:44;99616.27;;;12.36;100.00
35291;BME280;21411;50.024;19.220;2022-09-06T00:50:12;99613.17;;;12.31;100.00
35291;BME280;21411;50.024;19.220;2022-09-06T00:52:40;99616.58;;;12.28;100.00
35291;BME280;21411;50.024;19.220;2022-09-06T00:55:07;99618.46;;;12.24;100.00
35291;BME280;21411;50.024;19.220;2022-09-06T00:57:34;99619.14;;;12.19;100.00
35291;BME280;21411;50.024;19.220;2022-09-06T01:00:04;99618.29;;;12.15;100.00
35291;BME280;21411;50.024;19.220;2022-09-06T01:02:31;99616.41;;;12.11;100.00
35291;BME280;21411;50.024;19.220;2022-09-06T01:04:57;99615.59;;;12.07;100.00
35291;BME280;21411;50.024;19.220;2022-09-06T01:29:55;99603.15;;;11.72;100.00
35291;BME280;21411;50.024;19.220;2022-09-06T01:37:38;99608.95;;;11.62;100.00
35291;BME280;21411;50.024;19.220;2022-09-06T01:40:04;99605.74;;;11.59;100.00
35291;BME280;21411;50.024;19.220;2022-09-06T01:42:31;99603.98;;;11.59;100.00
35291;BME280;21411;50.024;19.220;2022-09-06T01:45:03;99602.57;;;11.58;100.00
35291;BME280;21411;50.024;19.220;2022-09-06T02:07:02;99599.63;;;11.37;100.00
35291;BME280;21411;50.024;19.220;2022-09-06T02:09:33;99592.92;;;11.33;100.00
35291;BME280;21411;50.024;19.220;2022-09-06T02:12:01;99589.45;;;11.29;100.00
35291;BME280;21411;50.024;19.220;2022-09-06T02:14:57;99592.10;;;11.26;100.00
35291;BME280;21411;50.024;19.220;2022-09-06T02:17:36;99592.28;;;11.23;100.00
35291;BME280;21411;50.024;19.220;2022-09-06T02:20:15;99594.23;;;11.20;100.00
35291;BME280;21411;50.024;19.220;2022-09-06T02:22:45;99594.39;;;11.17;100.00
35291;BME280;21411;50.024;19.220;2022-09-06T02:25:20;99590.89;;;11.16;100.00
35291;BME280;21411;50.024;19.220;2022-09-06T02:27:48;99588.89;;;11.14;100.00
35291;BME280;21411;50.024;19.220;2022-09-06T02:30:14;99583.34;;;11.12;100.00
35291;BME280;21411;50.024;19.220;2022-09-06T02:32:52;99584.27;;;11.08;100.00
35291;BME280;21411;50.024;19.220;2022-09-06T02:35:20;99584.59;;;11.06;100.00
35291;BME280;21411;50.024;19.220;2022-09-06T02:37:47;99582.91;;;11.04;100.00
35291;BME280;21411;50.024;19.220;2022-09-06T02:40:14;99583.73;;;11.05;100.00
35291;BME280;21411;50.024;19.220;2022-09-06T02:42:40;99581.98;;;11.04;100.00
35291;BME280;21411;50.024;19.220;2022-09-06T02:45:07;99581.52;;;11.03;100.00
35291;BME280;21411;50.024;19.220;2022-09-06T02:47:33;99580.13;;;11.00;100.00
35291;BME280;21411;50.024;19.220;2022-09-06T02:49:59;99580.09;;;10.97;100.00
35291;BME280;21411;50.024;19.220;2022-09-06T02:52:25;99585.42;;;10.94;100.00
35291;BME280;21411;50.024;19.220;2022-09-06T02:54:52;99589.48;;;10.92;100.00
35291;BME280;21411;50.024;19.220;2022-09-06T02:57:18;99587.38;;;10.91;100.00
35291;BME280;21411;50.024;19.220;2022-09-06T02:59:44;99585.33;;;10.90;100.00
35291;BME280;21411;50.024;19.220;2022-09-06T03:02:10;99583.98;;;10.88;100.00
35291;BME280;21411;50.024;19.220;2022-09-06T03:04:37;99582.55;;;10.86;100.00
35291;BME280;21411;50.024;19.220;2022-09-06T03:07:03;99580.86;;;10.84;100.00
35291;BME280;21411;50.024;19.220;2022-09-06T03:09:29;99584.97;;;10.81;100.00
35291;BME280;21411;50.024;19.220;2022-09-06T03:11:55;99586.95;;;10.78;100.00
35291;BME280;21411;50.024;19.220;2022-09-06T03:14:21;99585.91;;;10.74;100.00
35291;BME280;21411;50.024;19.220;2022-09-06T03:16:47;99585.92;;;10.71;100.00
35291;BME280;21411;50.024;19.220;2022-09-06T03:19:13;99582.86;;;10.68;100.00
35291;BME280;21411;50.024;19.220;2022-09-06T03:21:39;99580.13;;;10.66;100.00
35291;BME280;21411;50.024;19.220;2022-09-06T03:24:05;99582.77;;;10.64;100.00
35291;BME280;21411;50.024;19.220;2022-09-06T03:26:31;99584.70;;;10.61;100.00
35291;BME280;21411;50.024;19.220;2022-09-06T03:28:57;99587.16;;;10.59;100.00
35291;BME280;21411;50.024;19.220;2022-09-06T03:31:23;99587.89;;;10.55;100.00
35291;BME280;21411;50.024;19.220;2022-09-06T03:33:49;99588.89;;;10.50;100.00
35291;BME280;21411;50.024;19.220;2022-09-06T03:36:15;99583.56;;;10.44;100.00
35291;BME280;21411;50.024;19.220;2022-09-06T03:38:41;99578.00;;;10.38;100.00
35291;BME280;21411;50.024;19.220;2022-09-06T03:41:08;99576.66;;;10.34;100.00
35291;BME280;21411;50.024;19.220;2022-09-06T03:43:34;99571.84;;;10.31;100.00
35291;BME280;21411;50.024;19.220;2022-09-06T03:46:00;99571.91;;;10.30;100.00
35291;BME280;21411;50.024;19.220;2022-09-06T03:48:28;99568.46;;;10.28;100.00
35291;BME280;21411;50.024;19.220;2022-09-06T03:50:55;99571.76;;;10.26;100.00
35291;BME280;21411;50.024;19.220;2022-09-06T03:53:23;99575.66;;;10.26;100.00
35291;BME280;21411;50.024;19.220;2022-09-06T03:55:52;99574.48;;;10.25;100.00
35291;BME280;21411;50.024;19.220;2022-09-06T03:58:19;99571.90;;;10.23;100.00
35291;BME280;21411;50.024;19.220;2022-09-06T04:00:46;99568.80;;;10.21;100.00
35291;BME280;21411;50.024;19.220;2022-09-06T04:03:13;99568.16;;;10.20;100.00
35291;BME280;21411;50.024;19.220;2022-09-06T04:05:39;99568.18;;;10.20;100.00
35291;BME280;21411;50.024;19.220;2022-09-06T04:08:09;99559.69;;;10.22;100.00
35291;BME280;21411;50.024;19.220;2022-09-06T04:10:35;99554.59;;;10.24;100.00
35291;BME280;21411;50.024;19.220;2022-09-06T04:13:02;99554.93;;;10.28;100.00
35291;BME280;21411;50.024;19.220;2022-09-06T04:15:28;99560.48;;;10.31;100.00
35291;BME280;21411;50.024;19.220;2022-09-06T04:17:54;99553.97;;;10.33;100.00
35291;BME280;21411;50.024;19.220;2022-09-06T04:20:20;99552.34;;;10.37;100.00
35291;BME280;21411;50.024;19.220;2022-09-06T04:22:46;99555.86;;;10.40;100.00
35291;BME280;21411;50.024;19.220;2022-09-06T04:25:13;99558.95;;;10.49;100.00
35291;BME280;21411;50.024;19.220;2022-09-06T04:27:39;99563.71;;;10.77;100.00
35291;BME280;21411;50.024;19.220;2022-09-06T04:30:06;99564.27;;;11.07;100.00
35291;BME280;21411;50.024;19.220;2022-09-06T04:32:33;99569.02;;;11.37;100.00
35291;BME280;21411;50.024;19.220;2022-09-06T04:34:59;99570.01;;;11.67;100.00
35291;BME280;21411;50.024;19.220;2022-09-06T04:37:25;99574.08;;;11.90;100.00
35291;BME280;21411;50.024;19.220;2022-09-06T04:39:51;99575.94;;;12.23;100.00
35291;BME280;21411;50.024;19.220;2022-09-06T04:42:17;99575.84;;;12.55;100.00
35291;BME280;21411;50.024;19.220;2022-09-06T04:44:43;99569.77;;;12.95;100.00
35291;BME280;21411;50.024;19.220;2022-09-06T04:47:12;99569.73;;;13.25;100.00
35291;BME280;21411;50.024;19.220;2022-09-06T04:49:39;99570.29;;;13.16;100.00
35291;BME280;21411;50.024;19.220;2022-09-06T04:52:06;99573.11;;;13.43;100.00
35291;BME280;21411;50.024;19.220;2022-09-06T04:54:33;99574.14;;;13.79;100.00
35291;BME280;21411;50.024;19.220;2022-09-06T04:56:58;99579.73;;;13.96;100.00
35291;BME280;21411;50.024;19.220;2022-09-06T04:59:24;99583.79;;;14.21;100.00
35291;BME280;21411;50.024;19.220;2022-09-06T05:01:51;99584.02;;;14.41;100.00
35291;BME280;21411;50.024;19.220;2022-09-06T05:04:17;99586.27;;;14.64;100.00
35291;BME280;21411;50.024;19.220;2022-09-06T05:06:43;99580.72;;;14.95;100.00
35291;BME280;21411;50.024;19.220;2022-09-06T05:09:10;99581.02;;;15.17;100.00
35291;BME280;21411;50.024;19.220;2022-09-06T05:11:36;99584.20;;;15.38;100.00
35291;BME280;21411;50.024;19.220;2022-09-06T05:14:02;99584.90;;;15.62;100.00
35291;BME280;21411;50.024;19.220;2022-09-06T05:16:28;99583.41;;;15.83;100.00
35291;BME280;21411;50.024;19.220;2022-09-06T05:18:54;99579.74;;;16.09;100.00
35291;BME280;21411;50.024;19.220;2022-09-06T05:21:20;99575.70;;;16.32;100.00
35291;BME280;21411;50.024;19.220;2022-09-06T05:23:46;99576.73;;;16.44;100.00
35291;BME280;21411;50.024;19.220;2022-09-06T05:26:12;99575.83;;;16.57;100.00
35291;BME280;21411;50.024;19.220;2022-09-06T05:28:38;99574.08;;;16.72;100.00
35291;BME280;21411;50.024;19.220;2022-09-06T05:31:09;99574.61;;;16.87;100.00
35291;BME280;21411;50.024;19.220;2022-09-06T05:33:36;99570.08;;;16.85;100.00
35291;BME280;21411;50.024;19.220;2022-09-06T05:36:04;99570.42;;;16.79;100.00
35291;BME280;21411;50.024;19.220;2022-09-06T05:38:31;99575.86;;;16.79;100.00
35291;BME280;21411;50.024;19.220;2022-09-06T05:40:56;99573.35;;;16.79;100.00
35291;BME280;21411;50.024;19.220;2022-09-06T05:43:22;99570.21;;;16.86;100.00
35291;BME280;21411;50.024;19.220;2022-09-06T05:45:50;99574.96;;;16.87;100.00
35291;BME280;21411;50.024;19.220;2022-09-06T05:48:16;99576.67;;;16.86;100.00
35291;BME280;21411;50.024;19.220;2022-09-06T05:50:43;99577.82;;;16.74;100.00
35291;BME280;21411;50.024;19.220;2022-09-06T05:53:09;99577.09;;;16.74;100.00
35291;BME280;21411;50.024;19.220;2022-09-06T05:55:35;99577.64;;;16.76;100.00
35291;BME280;21411;50.024;19.220;2022-09-06T05:58:01;99581.24;;;16.83;100.00
35291;BME280;21411;50.024;19.220;2022-09-06T06:00:27;99581.06;;;16.94;100.00
35291;BME280;21411;50.024;19.220;2022-09-06T06:02:53;99581.93;;;17.00;100.00
35291;BME280;21411;50.024;19.220;2022-09-06T06:05:19;99576.23;;;17.00;100.00
35291;BME280;21411;50.024;19.220;2022-09-06T06:07:45;99578.20;;;17.00;100.00
35291;BME280;21411;50.024;19.220;2022-09-06T06:10:11;99578.17;;;16.98;100.00
35291;BME280;21411;50.024;19.220;2022-09-06T06:12:38;99576.54;;;17.00;100.00
35291;BME280;21411;50.024;19.220;2022-09-06T06:15:05;99575.39;;;16.93;100.00
35291;BME280;21411;50.024;19.220;2022-09-06T06:17:31;99573.13;;;16.81;100.00
35291;BME280;21411;50.024;19.220;2022-09-06T06:19:57;99576.27;;;16.82;100.00
35291;BME280;21411;50.024;19.220;2022-09-06T06:22:24;99565.73;;;16.88;100.00
35291;BME280;21411;50.024;19.220;2022-09-06T06:24:50;99559.48;;;16.81;100.00
35291;BME280;21411;50.024;19.220;2022-09-06T06:27:16;99566.98;;;16.69;100.00
35291;BME280;21411;50.024;19.220;2022-09-06T06:29:42;99573.34;;;16.61;100.00
35291;BME280;21411;50.024;19.220;2022-09-06T06:32:08;99572.61;;;16.52;100.00
35291;BME280;21411;50.024;19.220;2022-09-06T06:34:34;99575.48;;;16.43;100.00
35291;BME280;21411;50.024;19.220;2022-09-06T06:37:00;99569.66;;;16.32;100.00
35291;BME280;21411;50.024;19.220;2022-09-06T06:39:26;99569.34;;;16.33;100.00
35291;BME280;21411;50.024;19.220;2022-09-06T06:41:52;99569.19;;;16.46;100.00
35291;BME280;21411;50.024;19.220;2022-09-06T06:44:18;99566.63;;;16.64;100.00
35291;BME280;21411;50.024;19.220;2022-09-06T06:46:44;99569.88;;;16.73;100.00
35291;BME280;21411;50.024;19.220;2022-09-06T06:49:10;99571.36;;;16.65;100.00
35291;BME280;21411;50.024;19.220;2022-09-06T06:51:36;99569.41;;;16.56;100.00
35291;BME280;21411;50.024;19.220;2022-09-06T06:54:04;99570.30;;;16.50;100.00
35291;BME280;21411;50.024;19.220;2022-09-06T06:56:35;99564.85;;;16.49;100.00
35291;BME280;21411;50.024;19.220;2022-09-06T06:59:04;99563.88;;;16.48;100.00
35291;BME280;21411;50.024;19.220;2022-09-06T07:01:32;99562.27;;;16.43;100.00
35291;BME280;21411;50.024;19.220;2022-09-06T07:03:58;99566.98;;;16.38;100.00
35291;BME280;21411;50.024;19.220;2022-09-06T07:06:24;99572.04;;;16.42;100.00
35291;BME280;21411;50.024;19.220;2022-09-06T07:08:54;99576.19;;;16.57;100.00
35291;BME280;21411;50.024;19.220;2022-09-06T07:11:21;99575.72;;;16.78;100.00
35291;BME280;21411;50.024;19.220;2022-09-06T07:13:46;99574.44;;;17.00;100.00
35291;BME280;21411;50.024;19.220;2022-09-06T07:16:20;99573.14;;;17.11;100.00
35291;BME280;21411;50.024;19.220;2022-09-06T07:18:49;99570.59;;;17.20;100.00
35291;BME280;21411;50.024;19.220;2022-09-06T07:21:18;99576.13;;;17.28;100.00
35291;BME280;21411;50.024;19.220;2022-09-06T07:23:44;99578.55;;;17.34;100.00
35291;BME280;21411;50.024;19.220;2022-09-06T07:26:17;99584.30;;;17.48;100.00
35291;BME280;21411;50.024;19.220;2022-09-06T07:28:44;99586.80;;;17.57;100.00
35291;BME280;21411;50.024;19.220;2022-09-06T07:31:12;99588.18;;;17.64;100.00
35291;BME280;21411;50.024;19.220;2022-09-06T07:33:38;99594.88;;;17.75;100.00
35291;BME280;21411;50.024;19.220;2022-09-06T07:36:06;99592.52;;;17.83;100.00
35291;BME280;21411;50.024;19.220;2022-09-06T07:38:34;99594.05;;;17.96;100.00
35291;BME280;21411;50.024;19.220;2022-09-06T07:41:03;99587.84;;;18.03;98.43
35291;BME280;21411;50.024;19.220;2022-09-06T07:43:30;99590.41;;;18.12;97.87
35291;BME280;21411;50.024;19.220;2022-09-06T07:48:28;99587.66;;;18.23;97.92
35291;BME280;21411;50.024;19.220;2022-09-06T07:50:54;99585.27;;;18.34;97.13
35291;BME280;21411;50.024;19.220;2022-09-06T07:53:21;99583.36;;;18.37;96.98
35291;BME280;21411;50.024;19.220;2022-09-06T07:55:47;99588.19;;;18.39;96.86
35291;BME280;21411;50.024;19.220;2022-09-06T07:58:13;99587.18;;;18.45;96.50
35291;BME280;21411;50.024;19.220;2022-09-06T08:00:40;99588.74;;;18.47;95.78
35291;BME280;21411;50.024;19.220;2022-09-06T08:03:06;99590.86;;;18.50;94.88
35291;BME280;21411;50.024;19.220;2022-09-06T08:05:32;99588.98;;;18.45;93.57
35291;BME280;21411;50.024;19.220;2022-09-06T08:07:58;99591.16;;;18.44;94.51
35291;BME280;21411;50.024;19.220;2022-09-06T08:10:24;99588.91;;;18.59;94.97
35291;BME280;21411;50.024;19.220;2022-09-06T08:12:53;99586.92;;;18.79;95.19
35291;BME280;21411;50.024;19.220;2022-09-06T08:15:22;99586.98;;;18.91;94.22
35291;BME280;21411;50.024;19.220;2022-09-06T08:17:48;99587.77;;;18.97;93.52
35291;BME280;21411;50.024;19.220;2022-09-06T08:20:15;99589.16;;;19.08;93.80
35291;BME280;21411;50.024;19.220;2022-09-06T08:22:42;99585.18;;;19.14;92.32
35291;BME280;21411;50.024;19.220;2022-09-06T08:25:08;99584.80;;;19.12;92.58
35291;BME280;21411;50.024;19.220;2022-09-06T08:27:35;99583.73;;;19.10;92.86
35291;BME280;21411;50.024;19.220;2022-09-06T08:30:03;99580.28;;;19.11;93.11
35291;BME280;21411;50.024;19.220;2022-09-06T08:32:32;99573.77;;;19.13;93.49
35291;BME280;21411;50.024;19.220;2022-09-06T08:34:59;99568.54;;;19.15;93.54
35291;BME280;21411;50.024;19.220;2022-09-06T08:37:25;99568.88;;;19.07;93.47
35291;BME280;21411;50.024;19.220;2022-09-06T08:39:51;99574.39;;;18.96;93.42
35291;BME280;21411;50.024;19.220;2022-09-06T08:42:17;99572.01;;;18.83;94.15
35291;BME280;21411;50.024;19.220;2022-09-06T08:44:49;99575.91;;;18.74;94.11
35291;BME280;21411;50.024;19.220;2022-09-06T08:47:18;99575.87;;;18.64;94.51
35291;BME280;21411;50.024;19.220;2022-09-06T08:49:47;99577.11;;;18.53;93.93
35291;BME280;21411;50.024;19.220;2022-09-06T08:54:57;99566.13;;;18.42;94.73
35291;BME280;21411;50.024;19.220;2022-09-06T08:57:50;99560.21;;;18.42;95.10
35291;BME280;21411;50.024;19.220;2022-09-06T09:00:13;99556.71;;;18.43;95.41
35291;BME280;21411;50.024;19.220;2022-09-06T09:02:49;99556.36;;;18.47;95.87
35291;BME280;21411;50.024;19.220;2022-09-06T09:05:21;99557.05;;;18.50;95.61
35291;BME280;21411;50.024;19.220;2022-09-06T09:08:03;99554.88;;;18.50;95.61
35291;BME280;21411;50.024;19.220;2022-09-06T09:10:44;99562.54;;;18.53;96.28
35291;BME280;21411;50.024;19.220;2022-09-06T09:13:18;99565.92;;;18.57;95.00
35291;BME280;21411;50.024;19.220;2022-09-06T09:15:47;99563.17;;;18.61;95.62
35291;BME280;21411;50.024;19.220;2022-09-06T09:18:17;99562.30;;;18.71;95.27
35291;BME280;21411;50.024;19.220;2022-09-06T09:20:46;99556.00;;;18.79;94.97
35291;BME280;21411;50.024;19.220;2022-09-06T09:23:12;99549.38;;;18.84;94.69
35291;BME280;21411;50.024;19.220;2022-09-06T09:25:38;99547.08;;;18.88;94.06
35291;BME280;21411;50.024;19.220;2022-09-06T09:28:13;99540.02;;;18.88;93.06
35291;BME280;21411;50.024;19.220;2022-09-06T09:30:48;99535.61;;;18.89;92.81
35291;BME280;21411;50.024;19.220;2022-09-06T09:33:35;99534.84;;;18.99;93.23
35291;BME280;21411;50.024;19.220;2022-09-06T09:36:07;99534.19;;;19.18;93.65
35291;BME280;21411;50.024;19.220;2022-09-06T09:38:41;99528.10;;;19.41;93.76
35291;BME280;21411;50.024;19.220;2022-09-06T09:41:10;99521.86;;;19.64;93.39
35291;BME280;21411;50.024;19.220;2022-09-06T09:44:00;99517.00;;;19.81;92.86
35291;BME280;21411;50.024;19.220;2022-09-06T09:46:33;99511.58;;;20.02;91.81
35291;BME280;21411;50.024;19.220;2022-09-06T09:49:11;99504.98;;;20.15;91.99
35291;BME280;21411;50.024;19.220;2022-09-06T09:52:10;99507.67;;;20.45;91.96
35291;BME280;21411;50.024;19.220;2022-09-06T09:54:40;99495.09;;;20.75;91.82
35291;BME280;21411;50.024;19.220;2022-09-06T09:57:08;99492.73;;;20.96;90.93
35291;BME280;21411;50.024;19.220;2022-09-06T09:59:54;99491.45;;;21.27;90.78
35291;BME280;21411;50.024;19.220;2022-09-06T10:02:31;99481.52;;;21.56;89.47
35291;BME280;21411;50.024;19.220;2022-09-06T10:07:32;99479.48;;;21.99;82.35
35291;BME280;21411;50.024;19.220;2022-09-06T10:10:00;99480.44;;;21.97;80.44
35291;BME280;21411;50.024;19.220;2022-09-06T10:12:38;99482.10;;;21.90;79.57
35291;BME280;21411;50.024;19.220;2022-09-06T10:15:08;99481.34;;;21.68;77.43
35291;BME280;21411;50.024;19.220;2022-09-06T10:17:35;99479.01;;;21.37;75.27
35291;BME280;21411;50.024;19.220;2022-09-06T10:20:09;99476.71;;;21.08;75.41
35291;BME280;21411;50.024;19.220;2022-09-06T10:25:24;99472.20;;;20.89;74.42
35291;BME280;21411;50.024;19.220;2022-09-06T10:30:39;99481.97;;;20.51;75.07
35291;BME280;21411;50.024;19.220;2022-09-06T10:33:27;99483.50;;;20.52;75.91
35291;BME280;21411;50.024;19.220;2022-09-06T10:35:59;99482.26;;;20.59;76.46
35291;BME280;21411;50.024;19.220;2022-09-06T10:38:51;99478.34;;;20.68;75.05
35291;BME280;21411;50.024;19.220;2022-09-06T10:47:13;99487.81;;;20.93;73.57
35291;BME280;21411;50.024;19.220;2022-09-06T10:49:44;99481.48;;;21.08;73.48
35291;BME280;21411;50.024;19.220;2022-09-06T10:52:15;99474.62;;;21.25;73.85
35291;BME280;21411;50.024;19.220;2022-09-06T10:54:42;99471.19;;;21.41;72.85
35291;BME280;21411;50.024;19.220;2022-09-06T10:57:15;99473.48;;;21.53;70.83
35291;BME280;21411;50.024;19.220;2022-09-06T10:59:50;99471.80;;;21.68;71.06
35291;BME280;21411;50.024;19.220;2022-09-06T11:05:00;99469.44;;;22.03;69.93
35291;BME280;21411;50.024;19.220;2022-09-06T11:07:31;99467.62;;;22.17;69.42
35291;BME280;21411;50.024;19.220;2022-09-06T11:10:03;99461.70;;;22.30;69.64
35291;BME280;21411;50.024;19.220;2022-09-06T11:12:56;99463.44;;;22.56;70.35
35291;BME280;21411;50.024;19.220;2022-09-06T11:15:25;99456.01;;;22.92;68.94
35291;BME280;21411;50.024;19.220;2022-09-06T11:29:32;99452.61;;;22.32;57.18
35291;BME280;21411;50.024;19.220;2022-09-06T11:32:03;99447.95;;;22.10;55.74
35291;BME280;21411;50.024;19.220;2022-09-06T11:34:56;99446.96;;;21.89;56.25
35291;BME280;21411;50.024;19.220;2022-09-06T11:37:26;99445.85;;;21.72;56.09
35291;BME280;21411;50.024;19.220;2022-09-06T11:40:22;99442.65;;;21.55;56.65
35291;BME280;21411;50.024;19.220;2022-09-06T11:45:20;99439.27;;;21.56;57.97
35291;BME280;21411;50.024;19.220;2022-09-06T11:47:49;99435.68;;;21.65;57.82
35291;BME280;21411;50.024;19.220;2022-09-06T11:58:56;99423.36;;;21.79;56.59
35291;BME280;21411;50.024;19.220;2022-09-06T12:06:19;99423.64;;;21.63;56.84
35291;BME280;21411;50.024;19.220;2022-09-06T12:08:46;99424.98;;;21.56;56.78
35291;BME280;21411;50.024;19.220;2022-09-06T12:19:50;99402.83;;;21.23;55.94
35291;BME280;21411;50.024;19.220;2022-09-06T12:25:05;99395.73;;;21.14;56.26
35291;BME280;21411;50.024;19.220;2022-09-06T12:27:58;99399.98;;;21.21;55.62
35291;BME280;21411;50.024;19.220;2022-09-06T12:33:04;99393.81;;;21.39;55.50
35291;BME280;21411;50.024;19.220;2022-09-06T12:35:32;99393.23;;;21.51;54.83
35291;BME280;21411;50.024;19.220;2022-09-06T12:38:07;99392.14;;;21.67;55.20
35291;BME280;21411;50.024;19.220;2022-09-06T12:40:39;99386.89;;;21.87;54.58
35291;BME280;21411;50.024;19.220;2022-09-06T12:43:13;99376.65;;;22.03;54.28
35291;BME280;21411;50.024;19.220;2022-09-06T12:45:43;99377.23;;;22.20;54.37
35291;BME280;21411;50.024;19.220;2022-09-06T12:48:12;99381.33;;;22.31;53.84
35291;BME280;21411;50.024;19.220;2022-09-06T12:51:18;99381.26;;;22.32;53.34
35291;BME280;21411;50.024;19.220;2022-09-06T12:53:59;99375.27;;;22.19;52.24
35291;BME280;21411;50.024;19.220;2022-09-06T12:56:27;99373.54;;;22.15;52.60
35291;BME280;21411;50.024;19.220;2022-09-06T12:59:13;99370.60;;;22.02;52.36
35291;BME280;21411;50.024;19.220;2022-09-06T13:02:09;99373.12;;;21.89;52.82
35291;BME280;21411;50.024;19.220;2022-09-06T13:07:12;99372.21;;;21.77;52.94
35291;BME280;21411;50.024;19.220;2022-09-06T13:09:42;99368.46;;;21.82;53.49
35291;BME280;21411;50.024;19.220;2022-09-06T13:14:51;99364.02;;;22.03;53.15
35291;BME280;21411;50.024;19.220;2022-09-06T13:17:23;99358.88;;;22.12;52.94
35291;BME280;21411;50.024;19.220;2022-09-06T13:19:51;99361.73;;;22.26;52.55
35291;BME280;21411;50.024;19.220;2022-09-06T13:22:45;99359.91;;;22.32;52.17
35291;BME280;21411;50.024;19.220;2022-09-06T13:25:32;99352.68;;;22.41;52.91
35291;BME280;21411;50.024;19.220;2022-09-06T13:27:59;99351.63;;;22.47;52.57
35291;BME280;21411;50.024;19.220;2022-09-06T13:30:37;99354.25;;;22.54;53.14
35291;BME280;21411;50.024;19.220;2022-09-06T13:33:18;99356.38;;;22.59;53.29
35291;BME280;21411;50.024;19.220;2022-09-06T13:35:50;99354.56;;;22.58;52.37
35291;BME280;21411;50.024;19.220;2022-09-06T13:41:04;99346.71;;;22.36;52.23
35291;BME280;21411;50.024;19.220;2022-09-06T13:43:42;99344.51;;;22.28;52.64
35291;BME280;21411;50.024;19.220;2022-09-06T13:46:10;99340.26;;;22.27;53.24
35291;BME280;21411;50.024;19.220;2022-09-06T13:48:37;99344.56;;;22.29;52.94
35291;BME280;21411;50.024;19.220;2022-09-06T13:51:10;99333.05;;;22.22;52.38
35291;BME280;21411;50.024;19.220;2022-09-06T13:53:36;99331.98;;;22.14;52.98
35291;BME280;21411;50.024;19.220;2022-09-06T13:56:03;99335.27;;;22.16;53.17
35291;BME280;21411;50.024;19.220;2022-09-06T13:58:30;99335.33;;;22.19;53.56
35291;BME280;21411;50.024;19.220;2022-09-06T14:00:57;99338.94;;;22.26;53.39
35291;BME280;21411;50.024;19.220;2022-09-06T14:03:29;99331.80;;;22.36;53.64
35291;BME280;21411;50.024;19.220;2022-09-06T14:05:57;99329.52;;;22.51;53.69
35291;BME280;21411;50.024;19.220;2022-09-06T14:08:25;99328.79;;;22.57;52.97
35291;BME280;21411;50.024;19.220;2022-09-06T14:10:51;99325.67;;;22.62;52.90
35291;BME280;21411;50.024;19.220;2022-09-06T14:13:19;99325.38;;;22.72;53.07
35291;BME280;21411;50.024;19.220;2022-09-06T14:15:47;99325.11;;;22.86;52.98
35291;BME280;21411;50.024;19.220;2022-09-06T14:18:15;99322.63;;;22.92;53.15
35291;BME280;21411;50.024;19.220;2022-09-06T14:20:50;99322.96;;;22.94;52.64
35291;BME280;21411;50.024;19.220;2022-09-06T14:23:16;99326.02;;;22.89;52.19
35291;BME280;21411;50.024;19.220;2022-09-06T14:25:42;99324.05;;;22.81;52.15
35291;BME280;21411;50.024;19.220;2022-09-06T14:28:09;99317.42;;;22.80;52.54
35291;BME280;21411;50.024;19.220;2022-09-06T14:30:35;99315.79;;;22.82;52.47
35291;BME280;21411;50.024;19.220;2022-09-06T14:33:03;99310.49;;;22.83;52.57
35291;BME280;21411;50.024;19.220;2022-09-06T14:35:30;99307.40;;;22.86;51.94
35291;BME280;21411;50.024;19.220;2022-09-06T14:37:58;99308.31;;;22.83;51.83
35291;BME280;21411;50.024;19.220;2022-09-06T14:40:40;99308.55;;;22.84;51.72
35291;BME280;21411;50.024;19.220;2022-09-06T14:43:09;99306.67;;;22.86;51.49
35291;BME280;21411;50.024;19.220;2022-09-06T14:45:36;99307.36;;;22.83;51.07
35291;BME280;21411;50.024;19.220;2022-09-06T14:48:02;99303.52;;;22.80;51.21
35291;BME280;21411;50.024;19.220;2022-09-06T14:50:29;99304.79;;;22.76;51.25
35291;BME280;21411;50.024;19.220;2022-09-06T14:52:58;99308.59;;;22.62;49.70
35291;BME280;21411;50.024;19.220;2022-09-06T14:55:24;99302.05;;;22.48;50.29